Time;durP1;ratioP1;P1;durP2;ratioP2;P2;SDS_P1;SDS_P2;PMS_P1;PMS_P2;Temp;Humidity;BMP_temperature;BMP_pressure;BME280_temperature;BME280_humidity;BME280_pressure;Samples;Min_cycle;Max_cycle;Signal;HPM_P1;HPM_P2
2023/06/29 00:01:46;;;;;;;11.75;8.90;;;;;;;14.53;85.12;99917.94;1828721;78;25469;-65
2023/06/29 00:04:09;;;;;;;12.50;9.30;;;;;;;14.52;85.10;99925.32;1826806;78;25381;-65
2023/06/29 00:06:37;;;;;;;12.15;9.10;;;;;;;14.50;85.61;99919.41;1828718;78;27391;-65
2023/06/29 00:09:04;;;;;;;13.88;9.28;;;;;;;14.49;85.62;99924.64;1828611;78;25601;-65
2023/06/29 00:11:33;;;;;;;13.88;9.65;;;;;;;14.49;85.79;99924.64;1828643;78;25552;-65
2023/06/29 00:13:59;;;;;;;10.30;9.20;;;;;;;14.47;85.72;99928.28;1828576;78;25555;-65
2023/06/29 00:16:25;;;;;;;13.08;9.38;;;;;;;14.45;85.53;99929.17;1828659;78;25537;-65
2023/06/29 00:18:55;;;;;;;12.82;8.45;;;;;;;14.43;85.69;99928.73;1828598;78;27922;-65
2023/06/29 00:21:20;;;;;;;9.78;8.78;;;;;;;14.41;85.77;99930.22;1828063;78;25817;-66
2023/06/29 00:23:46;;;;;;;11.10;8.90;;;;;;;14.39;85.57;99933.28;1818023;78;25404;-65
2023/06/29 00:26:13;;;;;;;9.55;8.63;;;;;;;14.36;85.64;99937.47;1790142;79;25482;-65
2023/06/29 00:28:40;;;;;;;13.60;8.53;;;;;;;14.32;85.59;99930.33;1790189;79;25640;-65
2023/06/29 00:31:07;;;;;;;10.63;9.03;;;;;;;14.29;85.22;99929.09;1763228;80;28406;-65
2023/06/29 00:33:33;;;;;;;10.35;8.60;;;;;;;14.28;85.56;99917.20;1763324;80;25566;-65
2023/06/29 00:36:00;;;;;;;12.55;8.03;;;;;;;14.25;85.47;99924.13;1790082;79;25391;-65
2023/06/29 00:38:26;;;;;;;9.63;8.63;;;;;;;14.23;85.52;99925.02;1790138;80;25463;-65
2023/06/29 00:40:52;;;;;;;8.75;7.85;;;;;;;14.20;85.79;99924.36;1790251;79;25427;-65
2023/06/29 00:43:20;;;;;;;10.80;8.58;;;;;;;14.18;85.74;99921.17;1790100;80;28411;-64
2023/06/29 00:45:46;;;;;;;9.08;8.18;;;;;;;14.17;86.24;99926.41;1789999;80;25459;-65
2023/06/29 00:48:14;;;;;;;13.00;9.28;;;;;;;14.15;85.93;99926.74;1790093;80;25602;-65
2023/06/29 00:50:41;;;;;;;9.70;8.75;;;;;;;14.14;86.21;99918.92;1763619;80;25384;-65
2023/06/29 00:53:09;;;;;;;10.08;8.98;;;;;;;14.12;86.00;99934.80;1790145;80;25464;-65
2023/06/29 00:55:38;;;;;;;11.73;9.38;;;;;;;14.10;86.39;99931.05;1790147;80;27988;-65
2023/06/29 00:58:05;;;;;;;14.05;9.50;;;;;;;14.07;86.47;99923.57;1790168;80;25431;-65
2023/06/29 01:00:31;;;;;;;12.35;8.30;;;;;;;14.06;86.90;99928.77;1763498;80;25481;-64
2023/06/29 01:02:58;;;;;;;11.83;9.83;;;;;;;14.06;87.20;99933.42;1790114;80;25462;-65
2023/06/29 01:05:34;;;;;;;10.82;8.58;;;;;;;14.04;87.18;99922.89;1790159;80;25424;-65
2023/06/29 01:08:02;;;;;;;11.63;8.93;;;;;;;14.03;87.06;99919.96;1789019;80;27320;-65
2023/06/29 01:10:32;;;;;;;12.98;8.48;;;;;;;13.99;86.95;99911.66;1790055;80;25380;-65
2023/06/29 01:13:01;;;;;;;10.80;8.83;;;;;;;13.98;87.13;99912.81;1790195;79;25543;-65
2023/06/29 01:15:30;;;;;;;15.63;8.90;;;;;;;13.95;87.23;99917.57;1790250;79;25608;-65
2023/06/29 01:17:59;;;;;;;11.90;8.33;;;;;;;13.94;86.95;99911.11;1763658;80;25622;-65
2023/06/29 01:20:31;;;;;;;10.40;8.48;;;;;;;13.92;87.24;99912.02;1790195;80;27322;-64
2023/06/29 01:23:08;;;;;;;11.75;8.68;;;;;;;13.91;87.21;99913.15;1790054;80;25598;-64
2023/06/29 01:25:36;;;;;;;10.05;8.28;;;;;;;13.88;87.57;99914.64;1790145;78;25542;-64
2023/06/29 01:28:07;;;;;;;9.75;8.28;;;;;;;13.87;87.60;99902.73;1763601;80;25960;-65
2023/06/29 01:30:48;;;;;;;11.05;8.90;;;;;;;13.83;87.42;99895.26;1790120;79;25605;-66
2023/06/29 01:33:09;;;;;;;11.08;8.03;;;;;;;13.80;87.59;99897.30;1788322;80;27336;-66
2023/06/29 01:35:36;;;;;;;;;;;;;;;13.79;87.35;99901.70;1792708;80;25819;-65
2023/06/29 01:38:11;;;;;;;28.57;26.33;;;;;;;13.77;87.44;99910.77;1790153;79;25415;-65
2023/06/29 01:40:41;;;;;;;24.72;22.50;;;;;;;13.76;88.03;99911.92;1790107;80;25417;-64
2023/06/29 01:43:08;;;;;;;31.17;28.83;;;;;;;13.74;88.24;99910.90;1790290;80;25549;-64
2023/06/29 01:45:37;;;;;;;83.15;77.50;;;;;;;13.74;88.19;99914.98;1790236;79;27314;-64
2023/06/29 01:48:06;;;;;;;10.08;9.03;;;;;;;13.73;87.94;99913.38;1790348;79;25607;-64
2023/06/29 01:50:33;;;;;;;10.72;8.33;;;;;;;13.75;88.24;99910.33;1790449;80;25436;-64
2023/06/29 01:53:00;;;;;;;10.82;8.05;;;;;;;13.74;88.44;99910.90;1790334;80;26142;-65
2023/06/29 01:55:27;;;;;;;85.22;79.42;;;;;;;13.72;88.31;99904.98;1790287;80;25454;-65
2023/06/29 01:57:53;;;;;;;82.10;76.50;;;;;;;13.71;88.65;99906.72;1790257;80;27315;-65
2023/06/29 02:00:21;;;;;;;84.20;78.45;;;;;;;13.68;88.59;99901.37;1790187;80;25360;-65
2023/06/29 02:02:48;;;;;;;83.65;78.12;;;;;;;13.67;88.58;99904.42;1790285;80;25549;-65
2023/06/29 02:05:17;;;;;;;83.90;78.05;;;;;;;13.69;88.74;99917.11;1790326;79;25978;-65
2023/06/29 02:07:45;;;;;;;68.25;63.63;;;;;;;13.68;88.99;99911.46;1790512;80;33136;-65
2023/06/29 02:10:13;;;;;;;79.20;74.00;;;;;;;13.68;89.01;99917.68;1763895;80;28363;-65
2023/06/29 02:12:41;;;;;;;13.68;10.08;;;;;;;13.69;89.23;99915.20;1790158;80;25524;-65
2023/06/29 02:15:10;;;;;;;11.85;9.33;;;;;;;13.74;89.65;99932.64;1790239;80;25616;-65
2023/06/29 02:17:36;;;;;;;13.15;9.45;;;;;;;13.77;89.77;99936.05;1763833;80;32854;-64
2023/06/29 02:20:07;;;;;;;12.10;10.05;;;;;;;13.80;90.22;99940.78;1763536;80;25567;-65
2023/06/29 02:22:33;;;;;;;14.53;10.58;;;;;;;13.83;90.34;99937.97;1787013;80;27316;-65
2023/06/29 02:25:00;;;;;;;15.63;9.83;;;;;;;13.86;90.68;99937.30;1790146;79;25376;-65
2023/06/29 02:27:26;;;;;;;10.70;9.23;;;;;;;13.89;91.18;99943.39;1790416;79;25696;-65
2023/06/29 02:29:52;;;;;;;10.78;9.23;;;;;;;13.93;91.34;99945.67;1790293;80;25390;-65
2023/06/29 02:32:18;;;;;;;12.03;9.40;;;;;;;13.97;91.52;99946.56;1790358;79;25627;-65
2023/06/29 02:34:45;;;;;;;12.90;9.60;;;;;;;14.00;91.65;99947.25;1790341;80;27745;-65
2023/06/29 02:37:11;;;;;;;13.58;9.63;;;;;;;14.06;91.83;99951.10;1790284;80;25431;-65
2023/06/29 02:39:37;;;;;;;14.70;9.05;;;;;;;14.11;92.03;99946.80;1790325;80;25515;-65
2023/06/29 02:42:05;;;;;;;11.53;9.40;;;;;;;14.15;92.15;99945.00;1790285;80;25609;-65
2023/06/29 02:44:33;;;;;;;10.88;9.50;;;;;;;14.20;92.29;99944.19;1763894;80;25577;-65
2023/06/29 02:47:01;;;;;;;13.65;9.38;;;;;;;14.25;92.18;99945.08;1790453;80;27323;-65
2023/06/29 02:49:27;;;;;;;10.50;9.10;;;;;;;14.29;92.31;99946.78;1790156;80;25543;-65
2023/06/29 02:51:53;;;;;;;14.98;9.93;;;;;;;14.32;92.38;99952.91;1763411;80;25644;-65
2023/06/29 02:54:19;;;;;;;12.35;9.15;;;;;;;14.38;92.48;99958.31;1790215;79;25454;-65
2023/06/29 02:56:49;;;;;;;12.18;9.08;;;;;;;14.43;92.36;99960.59;1790153;80;25361;-65
2023/06/29 02:59:15;;;;;;;10.88;9.00;;;;;;;14.45;92.36;99961.83;1790196;80;27034;-65
2023/06/29 03:01:41;;;;;;;13.93;9.53;;;;;;;14.49;92.48;99961.92;1790099;80;25816;-66
2023/06/29 03:04:07;;;;;;;14.60;10.03;;;;;;;14.53;92.54;99960.12;1790198;80;25665;-65
2023/06/29 03:06:33;;;;;;;14.13;9.23;;;;;;;14.57;92.60;99959.65;1790139;80;25593;-65
2023/06/29 03:08:59;;;;;;;13.08;9.48;;;;;;;14.63;92.71;99967.05;1790190;80;25677;-65
2023/06/29 03:11:27;;;;;;;14.07;9.18;;;;;;;14.66;92.70;99968.52;1790139;80;27412;-65
2023/06/29 03:13:55;;;;;;;12.53;9.40;;;;;;;14.71;92.54;99976.99;1790104;80;25596;-65
2023/06/29 03:16:22;;;;;;;14.47;9.25;;;;;;;14.75;92.53;99972.46;1790001;80;25442;-65
2023/06/29 03:18:50;;;;;;;18.60;9.45;;;;;;;14.78;92.48;99973.14;1790154;79;25443;-65
2023/06/29 03:21:18;;;;;;;12.53;8.98;;;;;;;14.82;92.53;99978.11;1790200;80;25612;-63
2023/06/29 03:23:46;;;;;;;13.53;9.38;;;;;;;14.87;92.53;99981.16;1790293;79;27315;-63
2023/06/29 03:26:14;;;;;;;12.15;9.18;;;;;;;14.90;92.51;99976.39;1823940;78;25622;-64
2023/06/29 03:28:42;;;;;;;11.25;9.00;;;;;;;14.93;92.26;99973.77;1828632;78;25359;-64
2023/06/29 03:31:08;;;;;;;16.10;10.70;;;;;;;14.94;92.06;99971.25;1828515;78;25434;-67
2023/06/29 03:33:37;;;;;;;19.95;11.97;;;;;;;14.97;91.95;99977.17;1828585;78;25517;-66
2023/06/29 03:36:09;;;;;;;16.10;11.35;;;;;;;14.99;91.91;99983.05;1798130;78;27850;-64
2023/06/29 03:38:33;;;;;;;13.60;10.08;;;;;;;15.01;91.97;99978.05;1828012;77;25451;-66
2023/06/29 03:41:01;;;;;;;15.40;10.75;;;;;;;15.04;91.85;99971.91;1828735;78;25579;-64
2023/06/29 03:43:30;;;;;;;16.67;12.00;;;;;;;15.05;91.56;99974.84;1828614;78;25387;-64
2023/06/29 03:46:00;;;;;;;16.23;10.82;;;;;;;15.07;91.56;99977.45;1828602;78;25595;-65
2023/06/29 03:48:29;;;;;;;17.42;11.05;;;;;;;15.07;91.36;99982.91;1828748;78;27300;-65
2023/06/29 03:50:57;;;;;;;15.18;11.50;;;;;;;15.09;91.24;99990.73;1828639;78;30954;-64
2023/06/29 03:53:24;;;;;;;14.78;10.43;;;;;;;15.10;91.33;99991.75;1828704;78;25607;-66
2023/06/29 03:55:52;;;;;;;13.45;10.32;;;;;;;15.12;91.26;99985.95;1828585;78;25622;-66
2023/06/29 03:58:20;;;;;;;12.63;9.88;;;;;;;15.13;91.28;99996.48;1828606;78;25364;-64
2023/06/29 04:00:46;;;;;;;16.05;10.13;;;;;;;15.15;90.91;99992.63;1828620;78;27387;-64
2023/06/29 04:03:12;;;;;;;15.30;10.20;;;;;;;15.17;91.05;99997.16;1828525;78;25595;-64
2023/06/29 04:05:38;;;;;;;15.95;11.45;;;;;;;15.18;91.10;100002.27;1828555;78;25657;-64
2023/06/29 04:08:07;;;;;;;14.23;10.90;;;;;;;15.20;90.85;100008.73;1828558;78;25745;-64
2023/06/29 04:10:35;;;;;;;14.75;10.95;;;;;;;15.21;90.85;100005.66;1828631;78;25396;-66
2023/06/29 04:13:03;;;;;;;16.02;11.05;;;;;;;15.25;91.16;100016.08;1828544;78;28053;-66
2023/06/29 04:15:30;;;;;;;20.12;11.68;;;;;;;15.27;90.92;100008.92;1828478;78;25373;-66
2023/06/29 04:17:57;;;;;;;16.67;11.95;;;;;;;15.28;91.09;100008.57;1828648;78;25439;-65
2023/06/29 04:20:26;;;;;;;19.48;13.18;;;;;;;15.28;90.76;100005.84;1828557;78;25926;-61
2023/06/29 04:22:52;;;;;;;22.95;13.13;;;;;;;15.29;91.03;100000.63;1828661;78;25608;-62
2023/06/29 04:25:20;;;;;;;21.70;12.47;;;;;;;15.34;91.00;99997.42;1824461;78;27314;-64
2023/06/29 04:27:48;;;;;;;22.17;12.78;;;;;;;15.37;91.25;99999.45;1818114;78;25384;-63
2023/06/29 04:30:17;;;;;;;20.02;12.28;;;;;;;15.43;91.56;99995.34;1818158;78;25367;-62
2023/06/29 04:32:46;;;;;;;;;;;;;;;15.46;91.28;99999.53;1820819;78;26375;-62
2023/06/29 04:35:15;;;;;;;16.07;11.78;;;;;;;15.52;91.18;99997.33;1818471;78;25546;-62
2023/06/29 04:37:41;;;;;;;17.90;11.70;;;;;;;15.53;90.81;100002.20;1792853;78;27377;-62
2023/06/29 04:40:15;;;;;;;15.25;11.15;;;;;;;15.55;90.76;100004.81;1818070;78;25601;-62
2023/06/29 04:42:45;;;;;;;14.45;10.93;;;;;;;15.59;90.80;100011.14;1792833;78;25428;-62
2023/06/29 04:45:19;;;;;;;20.35;12.13;;;;;;;15.59;90.14;100002.18;1818280;78;25523;-63
2023/06/29 04:47:51;;;;;;;13.75;10.93;;;;;;;15.61;90.13;100006.70;1818261;78;25384;-63
2023/06/29 04:50:25;;;;;;;13.80;11.08;;;;;;;15.63;90.07;100010.68;1818234;78;27329;-63
2023/06/29 04:52:48;;;;;;;15.72;10.98;;;;;;;15.63;89.62;100008.50;1816907;78;25785;-62
2023/06/29 04:55:18;;;;;;;14.73;10.95;;;;;;;15.65;89.30;100019.30;1818170;78;25536;-62
2023/06/29 04:57:45;;;;;;;18.57;10.63;;;;;;;15.64;89.30;100016.34;1818134;78;25379;-60
2023/06/29 05:00:15;;;;;;;12.20;10.53;;;;;;;15.69;89.50;100018.02;1818227;78;25583;-60
2023/06/29 05:02:43;;;;;;;15.43;10.78;;;;;;;15.71;89.32;100026.64;1818230;78;27351;-61
2023/06/29 05:05:11;;;;;;;12.58;10.18;;;;;;;15.74;89.24;100029.25;1818091;78;25459;-59
2023/06/29 05:07:38;;;;;;;19.05;11.05;;;;;;;15.77;89.05;100028.01;1818173;78;25537;-60
2023/06/29 05:10:09;;;;;;;13.83;10.13;;;;;;;15.80;88.94;100034.68;1818149;78;25875;-59
2023/06/29 05:12:35;;;;;;;;;;;;;;;15.83;88.71;100033.98;1819918;78;25716;-64
2023/06/29 05:15:04;;;;;;;14.98;10.10;;;;;;;15.83;88.23;100034.80;1816976;78;27377;-64
2023/06/29 05:17:31;;;;;;;14.80;11.25;;;;;;;15.81;88.02;100037.64;1817298;78;25921;-64
2023/06/29 05:19:58;;;;;;;15.65;10.45;;;;;;;15.80;87.88;100030.59;1817292;78;25871;-65
2023/06/29 05:22:25;;;;;;;17.07;10.68;;;;;;;15.81;87.86;100028.88;1817324;78;25729;-64
2023/06/29 05:24:51;;;;;;;16.25;10.10;;;;;;;15.82;87.85;100030.47;1817209;78;25714;-64
2023/06/29 05:27:17;;;;;;;16.32;11.12;;;;;;;15.85;87.99;100024.88;1817831;78;27362;-64
2023/06/29 05:29:43;;;;;;;15.35;11.50;;;;;;;15.87;88.22;100020.67;1818020;78;25697;-64
2023/06/29 05:32:10;;;;;;;15.95;10.23;;;;;;;15.93;88.31;100023.13;1818257;78;25616;-66
2023/06/29 05:34:36;;;;;;;15.28;10.53;;;;;;;15.99;88.14;100027.19;1818317;78;25420;-64
2023/06/29 05:37:05;;;;;;;14.68;11.00;;;;;;;16.02;88.00;100025.09;1818309;78;25390;-65
2023/06/29 05:39:32;;;;;;;15.63;10.35;;;;;;;16.09;88.23;100029.94;1792859;78;27769;-64
2023/06/29 05:41:58;;;;;;;12.82;10.25;;;;;;;16.15;88.29;100029.33;1818151;78;25755;-64
2023/06/29 05:44:24;;;;;;;17.30;11.60;;;;;;;16.17;87.90;100024.30;1818338;78;25562;-64
2023/06/29 05:46:50;;;;;;;18.50;10.70;;;;;;;16.23;87.83;100027.00;1818241;78;25568;-64
2023/06/29 05:49:16;;;;;;;16.05;11.78;;;;;;;16.27;87.71;100027.08;1818313;78;25356;-64
2023/06/29 05:51:43;;;;;;;15.60;10.80;;;;;;;16.33;87.71;100025.67;1818211;78;27377;-65
2023/06/29 05:54:09;;;;;;;18.98;11.35;;;;;;;16.40;88.03;100024.47;1818221;78;25442;-64
2023/06/29 05:56:35;;;;;;;19.23;11.95;;;;;;;16.46;87.66;100026.92;1818337;78;25505;-64
2023/06/29 05:59:04;;;;;;;16.90;11.93;;;;;;;16.52;87.51;100025.52;1818278;78;25623;-64
2023/06/29 06:01:31;;;;;;;15.25;11.43;;;;;;;16.59;87.87;100017.48;1818312;78;25843;-65
2023/06/29 06:03:58;;;;;;;19.32;11.65;;;;;;;16.72;87.60;100020.30;1818293;78;26815;-64
2023/06/29 06:06:30;;;;;;;16.87;12.55;;;;;;;16.79;87.40;100020.45;1818216;78;25537;-64
2023/06/29 06:08:59;;;;;;;18.85;11.35;;;;;;;16.90;87.31;100022.06;1818349;78;25444;-64
2023/06/29 06:11:27;;;;;;;19.32;12.03;;;;;;;17.01;87.27;100018.22;1818400;78;25656;-64
2023/06/29 06:13:53;;;;;;;14.98;11.15;;;;;;;17.10;86.77;100022.09;1818302;78;25593;-64
2023/06/29 06:16:22;;;;;;;17.37;10.98;;;;;;;17.18;86.61;100027.92;1818335;78;27321;-64
2023/06/29 06:18:48;;;;;;;16.73;11.28;;;;;;;17.29;86.21;100024.80;1756176;80;25481;-65
2023/06/29 06:21:17;;;;;;;15.50;10.98;;;;;;;17.41;86.40;100027.18;1782429;80;25510;-64
2023/06/29 06:23:47;;;;;;;16.27;11.20;;;;;;;17.50;86.28;100020.89;1760249;81;26111;-65
2023/06/29 06:26:13;;;;;;;16.45;11.15;;;;;;;17.59;85.21;100021.47;1747030;81;25559;-64
2023/06/29 06:28:39;;;;;;;15.93;10.98;;;;;;;17.72;85.58;100021.52;1734177;82;27384;-64
2023/06/29 06:31:08;;;;;;;19.45;10.82;;;;;;;17.83;85.47;100029.91;1734204;82;25900;-64
2023/06/29 06:33:40;;;;;;;16.45;10.63;;;;;;;17.96;84.56;100034.63;1734280;82;25437;-64
2023/06/29 06:36:08;;;;;;;17.27;10.85;;;;;;;18.07;84.35;100034.24;1734290;82;25612;-64
2023/06/29 06:38:37;;;;;;;15.10;10.93;;;;;;;18.18;83.84;100028.93;1734261;82;25562;-64
2023/06/29 06:41:04;;;;;;;15.68;10.68;;;;;;;18.32;83.30;100033.05;1734408;82;28240;-64
2023/06/29 06:43:30;;;;;;;17.02;10.80;;;;;;;18.41;82.83;100041.23;1734169;82;25474;-64
2023/06/29 06:45:56;;;;;;;16.50;9.75;;;;;;;18.50;82.76;100028.64;1734336;82;25441;-65
2023/06/29 06:48:24;;;;;;;15.35;10.38;;;;;;;18.60;82.62;100029.96;1734209;82;25657;-64
2023/06/29 06:50:50;;;;;;;17.55;11.18;;;;;;;18.74;81.88;100029.36;1734253;82;25620;-64
2023/06/29 06:53:18;;;;;;;22.20;12.78;;;;;;;18.80;81.47;100034.16;1734234;82;28796;-64
2023/06/29 06:55:44;;;;;;;15.08;10.95;;;;;;;18.91;81.12;100028.05;1734230;82;25538;-65
2023/06/29 06:58:12;;;;;;;18.30;11.57;;;;;;;19.02;81.14;100035.84;1734172;82;25577;-65
2023/06/29 07:00:38;;;;;;;14.25;10.93;;;;;;;19.09;80.56;100036.52;1715124;82;25612;-65
2023/06/29 07:03:06;;;;;;;14.98;11.57;;;;;;;19.16;80.07;100032.48;1734276;82;25611;-64
2023/06/29 07:05:37;;;;;;;19.60;11.28;;;;;;;19.34;79.66;100026.63;1734014;82;27678;-65
2023/06/29 07:08:04;;;;;;;13.08;9.98;;;;;;;19.52;79.31;100024.06;1732968;82;25917;-64
2023/06/29 07:10:31;;;;;;;13.38;9.98;;;;;;;19.71;79.16;100028.55;1732978;82;25766;-63
2023/06/29 07:12:57;;;;;;;18.55;10.75;;;;;;;19.86;78.76;100035.59;1732840;82;26021;-64
2023/06/29 07:15:23;;;;;;;17.80;10.15;;;;;;;20.12;78.52;100029.92;1732944;82;25729;-63
2023/06/29 07:17:52;;;;;;;13.15;10.05;;;;;;;20.43;78.61;100025.06;1732893;82;27662;-63
2023/06/29 07:20:19;;;;;;;14.15;10.10;;;;;;;20.79;77.83;100031.36;1732911;82;25816;-63
2023/06/29 07:22:45;;;;;;;11.90;9.95;;;;;;;21.15;77.33;100026.83;1733910;82;25618;-63
2023/06/29 07:25:11;;;;;;;12.98;10.63;;;;;;;21.51;75.02;100024.20;1734221;82;26039;-63
2023/06/29 07:27:38;;;;;;;10.18;8.93;;;;;;;21.61;73.70;100033.07;1690277;82;25631;-63
2023/06/29 07:30:07;;;;;;;11.30;9.13;;;;;;;21.60;72.74;100030.70;1732918;82;28182;-63
2023/06/29 07:32:35;;;;;;;11.15;8.90;;;;;;;21.73;72.88;100039.39;1732829;82;25607;-63
2023/06/29 07:35:01;;;;;;;10.95;8.45;;;;;;;21.80;71.40;100031.13;1732952;82;25613;-62
2023/06/29 07:37:28;;;;;;;13.03;9.35;;;;;;;22.03;71.34;100022.48;1732846;82;25585;-64
2023/06/29 07:39:54;;;;;;;14.33;10.18;;;;;;;22.29;70.75;100021.92;1714214;82;25428;-63
2023/06/29 07:42:21;;;;;;;9.78;8.10;;;;;;;22.53;69.64;100020.30;1732980;82;27379;-63
2023/06/29 07:44:47;;;;;;;12.25;9.45;;;;;;;22.76;69.69;100029.48;1732858;82;25566;-63
2023/06/29 07:47:14;;;;;;;14.65;9.55;;;;;;;23.02;69.06;100026.84;1713957;82;25597;-63
2023/06/29 07:49:41;;;;;;;12.88;7.87;;;;;;;23.32;68.39;100031.06;1732953;82;25663;-63
2023/06/29 07:52:09;;;;;;;9.90;8.05;;;;;;;23.62;68.39;100026.35;1732981;82;25623;-62
2023/06/29 07:54:35;;;;;;;10.35;8.25;;;;;;;23.86;67.23;100021.09;1732954;82;28035;-63
2023/06/29 07:57:04;;;;;;;12.45;8.98;;;;;;;24.07;65.53;100021.50;1732851;82;25425;-63
2023/06/29 07:59:31;;;;;;;12.05;8.73;;;;;;;24.09;64.22;100014.97;1732875;82;25672;-63
2023/06/29 08:01:57;;;;;;;13.38;8.58;;;;;;;24.26;64.57;100019.37;1713778;82;25881;-62
2023/06/29 08:04:24;;;;;;;9.78;7.65;;;;;;;24.43;64.22;100016.45;1732969;82;25608;-63
2023/06/29 08:06:52;;;;;;;11.08;7.50;;;;;;;24.76;64.42;100011.98;1732910;82;27172;-63
2023/06/29 08:09:21;;;;;;;73.83;69.22;;;;;;;25.16;63.56;100009.48;1732805;82;25375;-63
2023/06/29 08:11:47;;;;;;;74.40;69.70;;;;;;;25.49;62.94;100005.72;1733028;82;25586;-63
2023/06/29 08:14:15;;;;;;;71.50;67.03;;;;;;;25.79;61.50;100008.99;1732875;82;25639;-68
2023/06/29 08:16:43;;;;;;;72.53;67.82;;;;;;;25.94;60.58;100003.23;1732912;82;25480;-63
2023/06/29 08:19:11;;;;;;;69.22;65.12;;;;;;;26.22;60.66;100007.52;1733019;82;27555;-63
2023/06/29 08:21:40;;;;;;;71.42;66.77;;;;;;;26.54;60.31;99997.22;1732920;82;26002;-63
2023/06/29 08:24:08;;;;;;;69.00;64.70;;;;;;;26.86;58.02;100000.61;1733132;82;25427;-63
2023/06/29 08:26:35;;;;;;;69.67;65.47;;;;;;;26.97;57.65;99998.38;1744554;81;26298;-63
2023/06/29 08:29:06;;;;;;;69.35;65.12;;;;;;;27.23;57.45;99994.48;1765019;81;25547;-64
2023/06/29 08:31:38;;;;;;;68.10;63.78;;;;;;;27.53;56.54;99992.02;1764879;81;28381;-63
2023/06/29 08:34:06;;;;;;;70.75;66.47;;;;;;;27.77;55.50;99978.77;1734128;81;25615;-63
2023/06/29 08:36:32;;;;;;;66.72;62.67;;;;;;;27.91;54.88;99985.34;1765006;81;25598;-63
2023/06/29 08:39:01;;;;;;;69.97;66.10;;;;;;;28.20;54.73;99983.23;1764915;81;26862;-63
2023/06/29 08:41:30;;;;;;;67.32;63.30;;;;;;;28.54;54.49;99981.13;1764873;81;25558;-63
2023/06/29 08:43:58;;;;;;;65.05;61.23;;;;;;;28.91;54.00;99988.04;1765031;81;27831;-64
2023/06/29 08:46:28;;;;;;;66.70;62.78;;;;;;;29.15;52.90;99981.58;1764751;81;25555;-63
2023/06/29 08:48:57;;;;;;;63.78;60.17;;;;;;;29.37;51.51;99982.31;1764876;81;25570;-63
2023/06/29 08:51:27;;;;;;;61.65;57.95;;;;;;;29.66;51.00;99973.05;1764763;81;26167;-64
2023/06/29 08:53:55;;;;;;;65.32;61.25;;;;;;;29.19;49.85;99870.88;1764837;81;25626;-64
2023/06/29 08:56:25;;;;;;;63.20;59.50;;;;;;;27.95;49.51;99645.61;1764837;81;27451;-63
2023/06/29 08:58:54;;;;;;;64.92;61.20;;;;;;;30.36;48.35;99969.73;1789720;80;25590;-63
2023/06/29 09:01:24;;;;;;;64.97;61.33;;;;;;;30.50;47.80;99972.61;1760985;80;25314;-63
2023/06/29 09:03:52;;;;;;;65.85;61.88;;;;;;;30.50;45.80;99970.59;1789761;80;25661;-64
2023/06/29 09:06:23;;;;;;;62.80;58.80;;;;;;;30.25;45.79;99972.85;1789960;80;25598;-65
2023/06/29 09:08:52;;;;;;;58.83;55.23;;;;;;;30.28;46.36;99964.20;1789899;79;27326;-64
2023/06/29 09:11:20;;;;;;;60.45;56.75;;;;;;;24.10;46.21;98935.13;1789837;80;25374;-63
2023/06/29 09:13:49;;;;;;;63.10;59.10;;;;;;;;;;1789828;79;25394;-64
2023/06/29 09:16:20;;;;;;;44.90;42.23;;;;;;;;;;1789860;80;25608;-63
2023/06/29 09:18:54;;;;;;;4.45;4.35;;;;;;;;;;1789922;80;25479;-63
2023/06/29 09:21:23;;;;;;;42.23;39.60;;;;;;;;;;1789569;80;27167;-63
2023/06/29 09:23:50;;;;;;;3.70;3.60;;;;;;;;;;1789655;80;25542;-63
2023/06/29 09:26:18;;;;;;;3.62;3.52;;;;;;;;;;1788540;80;25130;-63
2023/06/29 09:28:47;;;;;;;63.38;59.73;;;;;;;;;;1780075;80;25649;-63
2023/06/29 09:31:15;;;;;;;;;;;;;;;;;;1782885;80;25489;-63
2023/06/29 09:33:42;;;;;;;61.42;57.50;;;;;;;;;;1780158;80;27451;-63
2023/06/29 09:36:12;;;;;;;59.65;56.02;;;;;;;;;;1756106;80;25327;-63
2023/06/29 09:38:41;;;;;;;60.38;57.05;;;;;;;;;;1780165;80;25416;-63
2023/06/29 09:41:12;;;;;;;60.38;56.68;;;;;;;;;;1780161;80;25855;-64
2023/06/29 09:43:40;;;;;;;62.45;58.95;;;;;;;;;;1780225;80;25347;-63
2023/06/29 09:46:08;;;;;;;60.70;57.40;;;;;;;;;;1780175;80;28032;-63
2023/06/29 09:48:46;;;;;;;45.15;42.53;;;;;;;;;;1780097;80;25492;-63
2023/06/29 09:51:21;;;;;;;60.52;57.23;;;;;;;;;;1780307;80;25457;-63
2023/06/29 09:53:48;;;;;;;60.83;57.05;;;;;;;;;;1780098;80;25625;-63
2023/06/29 09:56:17;;;;;;;59.88;56.58;;;;;;;;;;1780153;80;25475;-63
2023/06/29 09:58:45;;;;;;;;;;;;;;;;;;1782764;80;27189;-63
2023/06/29 10:01:15;;;;;;;60.88;57.58;;;;;;;;;;1759451;81;25447;-64
2023/06/29 10:03:42;;;;;;;57.62;54.53;;;;;;;;;;1818355;78;25303;-63
2023/06/29 10:06:12;;;;;;;;;;;;;;;;;;1785228;80;25703;-64
2023/06/29 10:08:45;;;;;;;24.45;23.05;;;;;;;;;;1743072;82;25489;-63
2023/06/29 10:11:18;;;;;;;53.33;50.33;;;;;;;;;;1782600;80;27197;-63
2023/06/29 10:13:49;;;;;;;60.58;57.43;;;;;;;;;;1788519;80;25466;-63
2023/06/29 10:16:22;;;;;;;60.08;56.77;;;;;;;;;;1782475;79;25462;-63
2023/06/29 10:18:54;;;;;;;59.50;56.25;;;;;;;;;;1782487;80;25616;-63
2023/06/29 10:21:23;;;;;;;58.80;55.55;;;;;;;;;;1782530;80;25474;-63
2023/06/29 10:23:53;;;;;;;61.88;58.63;;;;;;;;;;1782467;80;27201;-62
2023/06/29 10:26:26;;;;;;;56.65;53.48;;;;;;;;;;1788270;79;25884;-63
2023/06/29 10:29:04;;;;;;;59.60;56.30;;;;;;;;;;1722318;82;25634;-62
2023/06/29 10:31:37;;;;;;;57.67;54.50;;;;;;;;;;1720829;82;25619;-62
2023/06/29 10:34:12;;;;;;;58.08;54.88;;;;;;;;;;1753143;81;25535;-62
2023/06/29 10:36:57;;;;;;;56.42;53.33;;;;;;;;;;1694912;83;27850;-62
2023/06/29 10:39:45;;;;;;;59.48;56.23;;;;;;;;;;1753221;81;25481;-62
2023/06/29 10:42:32;;;;;;;57.60;54.53;;;;;;;;;;1753730;81;25377;-63
2023/06/29 10:45:24;;;;;;;59.38;55.78;;;;;;;;;;1753690;81;25663;-63
2023/06/29 10:48:00;;;;;;;58.35;55.43;;;;;;;;;;1743630;81;25529;-62
2023/06/29 10:50:33;;;;;;;59.40;56.40;;;;;;;;;;1721841;83;27096;-63
2023/06/29 10:53:05;;;;;;;60.88;57.45;;;;;;;;;;1721510;83;25583;-62
2023/06/29 10:55:44;;;;;;;60.40;57.27;;;;;;;;;;1753153;81;25370;-62
2023/06/29 10:58:16;;;;;;;59.67;56.42;;;;;;;;;;1692153;84;25683;-62
2023/06/29 11:00:46;;;;;;;61.18;57.98;;;;;;;;;;1699009;83;25419;-62
2023/06/29 11:03:15;;;;;;;58.50;55.30;;;;;;;;;;1687987;85;27282;-61
2023/06/29 11:05:48;;;;;;;59.03;56.02;;;;;;;;;;1687941;85;25647;-62
2023/06/29 11:08:24;;;;;;;57.90;54.90;;;;;;;;;;1688008;85;25498;-64
2023/06/29 11:10:53;;;;;;;58.65;55.65;;;;;;;;;;1687990;85;25629;-62
2023/06/29 11:13:22;;;;;;;58.13;55.12;;;;;;;;;;1687894;85;25532;-64
2023/06/29 11:15:58;;;;;;;60.05;56.95;;;;;;;;;;1687913;85;27239;-63
2023/06/29 11:18:28;;;;;;;57.60;54.53;;;;;;;;;;1687899;85;25371;-59
2023/06/29 11:20:57;;;;;;;49.55;47.00;;;;;;;;;;1687248;85;25377;-56
2023/06/29 11:23:24;;;;;;;58.15;55.00;;;;;;;;;;1687918;85;25621;-56
2023/06/29 11:25:53;;;;;;;57.30;54.30;;;;;;;;;;1687885;83;25418;-58
2023/06/29 11:28:20;;;;;;;58.23;55.12;;;;;;;;;;1685727;85;27265;-57
2023/06/29 11:30:47;;;;;;;58.25;55.05;;;;;;;;;;1684847;85;25510;-57
2023/06/29 11:33:14;;;;;;;58.73;55.58;;;;;;;;;;1717925;83;25556;-60
2023/06/29 11:35:43;;;;;;;57.93;55.03;;;;;;;;;;1748339;81;25685;-62
2023/06/29 11:38:12;;;;;;;59.55;56.55;;;;;;;;;;1771427;81;25448;-58
2023/06/29 11:40:39;;;;;;;58.80;55.40;;;;;;;;;;1771421;80;27192;-58
2023/06/29 11:43:06;;;;;;;57.48;54.58;;;;;;;;;;1786880;80;25475;-55
2023/06/29 11:45:33;;;;;;;58.65;55.43;;;;;;;;;;1786930;80;25387;-57
2023/06/29 11:48:01;;;;;;;57.45;54.45;;;;;;;;;;1753715;80;26658;-57
2023/06/29 11:50:30;;;;;;;58.02;54.93;;;;;;;;;;1787001;80;25529;-57
2023/06/29 11:53:53;;;;;;;58.02;54.90;;;;;;;;;;1787482;80;27247;-55
2023/06/29 11:56:28;;;;;;;58.52;55.43;;;;;;;;;;1780769;80;25616;-55
2023/06/29 11:58:56;;;;;;;57.88;54.88;;;;;;;;;;1753630;80;25543;-56
2023/06/29 12:01:24;;;;;;;57.95;54.93;;;;;;;;;;1786845;80;26369;-55